IGO442 VOBL-VECC
Flight info
| Callsign | IGO442 |
|---|---|
| Flight time | N/A |
| Altitude | 39000 |
| Route | ANIRO8A ANIRO W47 VVZ A465 KAKID KAKID2G |
| Aircraft | A20N/M-SDE2E3FGHIRWXY/LB1 |
Departure
| Time | 2026-04-28 15:34 |
|---|---|
| Airport | Kempegowda International Airport Bengaluru (VOBL) |
Arrival
| Time | N/A |
|---|---|
| Airport | Netaji Subhash Chandra Bose International Airport (VECC) |
| Time | Latitude | Longitude | Altitude | Speed | Heading |
|---|---|---|---|---|---|
| 2026-04-28 15:01 | 13.20169 | 77.70795 | 2961 ft | 0 kts | 180° |
| 2026-04-28 15:13 | 13.20176 | 77.70795 | 2933 ft | 2 kts | 179° |
| 2026-04-28 15:13 | 13.20180 | 77.70795 | 2933 ft | 0 kts | 180° |
| 2026-04-28 15:13 | 13.20186 | 77.70795 | 2925 ft | 1 kts | 180° |
| 2026-04-28 15:14 | 13.20189 | 77.70795 | 2925 ft | 0 kts | 180° |
| 2026-04-28 15:14 | 13.20194 | 77.70795 | 2924 ft | 1 kts | 181° |
| 2026-04-28 15:14 | 13.20204 | 77.70795 | 2954 ft | 1 kts | 181° |
| 2026-04-28 15:15 | 13.20214 | 77.70795 | 2947 ft | 1 kts | 182° |
| 2026-04-28 15:15 | 13.20220 | 77.70796 | 2949 ft | 1 kts | 182° |
| 2026-04-28 15:15 | 13.20233 | 77.70796 | 2954 ft | 1 kts | 180° |
| 2026-04-28 15:15 | 13.20243 | 77.70796 | 2954 ft | 1 kts | 188° |
| 2026-04-28 15:16 | 13.20253 | 77.70798 | 2952 ft | 1 kts | 205° |
| 2026-04-28 15:16 | 13.20261 | 77.70804 | 2950 ft | 1 kts | 256° |
| 2026-04-28 15:16 | 13.20262 | 77.70811 | 2948 ft | 1 kts | 267° |
| 2026-04-28 15:16 | 13.20263 | 77.70824 | 2944 ft | 1 kts | 268° |
| 2026-04-28 15:17 | 13.20263 | 77.70828 | 2944 ft | 0 kts | 270° |
| 2026-04-28 15:21 | 13.20263 | 77.70824 | 2945 ft | 1 kts | 270° |
| 2026-04-28 15:22 | 13.20263 | 77.70820 | 2945 ft | 0 kts | 270° |
| 2026-04-28 15:22 | 13.20263 | 77.70819 | 2945 ft | 1 kts | 270° |
| 2026-04-28 15:22 | 13.20263 | 77.70816 | 2945 ft | 0 kts | 270° |
| 2026-04-28 15:23 | 13.20263 | 77.70815 | 2947 ft | 1 kts | 270° |
| 2026-04-28 15:23 | 13.20263 | 77.70806 | 2949 ft | 2 kts | 270° |
| 2026-04-28 15:23 | 13.20263 | 77.70789 | 2955 ft | 3 kts | 270° |
| 2026-04-28 15:24 | 13.20264 | 77.70763 | 2961 ft | 4 kts | 273° |
| 2026-04-28 15:24 | 13.20265 | 77.70731 | 2962 ft | 5 kts | 271° |
| 2026-04-28 15:24 | 13.20265 | 77.70692 | 2963 ft | 6 kts | 270° |
| 2026-04-28 15:24 | 13.20266 | 77.70639 | 2955 ft | 10 kts | 271° |
| 2026-04-28 15:25 | 13.20267 | 77.70553 | 2956 ft | 14 kts | 270° |
| 2026-04-28 15:25 | 13.20267 | 77.70452 | 2968 ft | 14 kts | 270° |
| 2026-04-28 15:25 | 13.20290 | 77.70398 | 2969 ft | 8 kts | 321° |
| 2026-04-28 15:25 | 13.20350 | 77.70390 | 2970 ft | 10 kts | 0° |
| 2026-04-28 15:26 | 13.20373 | 77.70390 | 2970 ft | 1 kts | 0° |
| 2026-04-28 15:26 | 13.20392 | 77.70391 | 2970 ft | 4 kts | 1° |
| 2026-04-28 15:26 | 13.20421 | 77.70391 | 2970 ft | 0 kts | 0° |
| 2026-04-28 15:27 | 13.20422 | 77.70391 | 2970 ft | 0 kts | 0° |
| 2026-04-28 15:27 | 13.20433 | 77.70391 | 2970 ft | 3 kts | 0° |
| 2026-04-28 15:28 | 13.20463 | 77.70391 | 2970 ft | 6 kts | 360° |
| 2026-04-28 15:28 | 13.20509 | 77.70400 | 2970 ft | 8 kts | 28° |
| 2026-04-28 15:28 | 13.20531 | 77.70459 | 2968 ft | 11 kts | 90° |
| 2026-04-28 15:28 | 13.20530 | 77.70554 | 2952 ft | 15 kts | 90° |
| 2026-04-28 15:29 | 13.20529 | 77.70678 | 2952 ft | 19 kts | 91° |
| 2026-04-28 15:29 | 13.20527 | 77.70827 | 2960 ft | 23 kts | 90° |
| 2026-04-28 15:29 | 13.20525 | 77.71001 | 2956 ft | 26 kts | 90° |
| 2026-04-28 15:29 | 13.20523 | 77.71191 | 2952 ft | 28 kts | 90° |
| 2026-04-28 15:30 | 13.20521 | 77.71376 | 2941 ft | 26 kts | 90° |
| 2026-04-28 15:30 | 13.20521 | 77.71572 | 2944 ft | 29 kts | 90° |
| 2026-04-28 15:30 | 13.20519 | 77.71785 | 2939 ft | 28 kts | 90° |
| 2026-04-28 15:30 | 13.20518 | 77.71985 | 2928 ft | 29 kts | 90° |
| 2026-04-28 15:31 | 13.20517 | 77.72168 | 2931 ft | 25 kts | 90° |
| 2026-04-28 15:31 | 13.20517 | 77.72232 | 2929 ft | 0 kts | 88° |
| 2026-04-28 15:31 | 13.20518 | 77.72239 | 2929 ft | 3 kts | 79° |
| 2026-04-28 15:31 | 13.20535 | 77.72268 | 2926 ft | 7 kts | 49° |
| 2026-04-28 15:32 | 13.20555 | 77.72280 | 2928 ft | 0 kts | 17° |
| 2026-04-28 15:32 | 13.20555 | 77.72281 | 2928 ft | 1 kts | 17° |
| 2026-04-28 15:32 | 13.20579 | 77.72283 | 2928 ft | 5 kts | 2° |
| 2026-04-28 15:32 | 13.20638 | 77.72277 | 2929 ft | 11 kts | 331° |
| 2026-04-28 15:33 | 13.20687 | 77.72211 | 2930 ft | 13 kts | 274° |
| 2026-04-28 15:33 | 13.20691 | 77.72001 | 2934 ft | 60 kts | 271° |
| 2026-04-28 15:33 | 13.20696 | 77.71360 | 2948 ft | 117 kts | 270° |
| 2026-04-28 15:33 | 13.20704 | 77.70360 | 2972 ft | 161 kts | 271° |
| 2026-04-28 15:34 | 13.20726 | 77.69237 | 3569 ft | 155 kts | 272° |
| 2026-04-28 15:34 | 13.20750 | 77.68054 | 3841 ft | 178 kts | 271° |
| 2026-04-28 15:34 | 13.20776 | 77.66731 | 4308 ft | 189 kts | 271° |
| 2026-04-28 15:34 | 13.20797 | 77.65399 | 4912 ft | 197 kts | 272° |
| 2026-04-28 15:35 | 13.20821 | 77.63908 | 5320 ft | 217 kts | 271° |
| 2026-04-28 15:35 | 13.22038 | 77.60881 | 6067 ft | 257 kts | 324° |
| 2026-04-28 15:35 | 13.23634 | 77.59931 | 6480 ft | 276 kts | 334° |
| 2026-04-28 15:36 | 13.25164 | 77.58661 | 6855 ft | 290 kts | 313° |
| 2026-04-28 15:36 | 13.26447 | 77.57051 | 6962 ft | 291 kts | 309° |
| 2026-04-28 15:36 | 13.27668 | 77.55390 | 6992 ft | 291 kts | 308° |
| 2026-04-28 15:36 | 13.28893 | 77.53747 | 6985 ft | 289 kts | 315° |
| 2026-04-28 15:37 | 13.30512 | 77.52591 | 6989 ft | 284 kts | 341° |
| 2026-04-28 15:37 | 13.32434 | 77.52286 | 6981 ft | 280 kts | 7° |
| 2026-04-28 15:37 | 13.34247 | 77.52842 | 6987 ft | 276 kts | 30° |
| 2026-04-28 15:37 | 13.35370 | 77.53514 | 6981 ft | 277 kts | 32° |
| 2026-04-28 15:38 | 13.37565 | 77.54849 | 6978 ft | 276 kts | 32° |
| 2026-04-28 15:38 | 13.39222 | 77.55855 | 6979 ft | 276 kts | 32° |
| 2026-04-28 15:38 | 13.40873 | 77.56851 | 6980 ft | 276 kts | 32° |
| 2026-04-28 15:38 | 13.42538 | 77.57853 | 7106 ft | 279 kts | 32° |
| 2026-04-28 15:39 | 13.44223 | 77.58865 | 7741 ft | 280 kts | 32° |
| 2026-04-28 15:39 | 13.45905 | 77.59875 | 8651 ft | 282 kts | 32° |
| 2026-04-28 15:39 | 13.47618 | 77.60904 | 9446 ft | 287 kts | 32° |
| 2026-04-28 15:39 | 13.49352 | 77.61946 | 10237 ft | 291 kts | 32° |
| 2026-04-28 15:40 | 13.50994 | 77.63169 | 10810 ft | 301 kts | 47° |
| 2026-04-28 15:40 | 13.52176 | 77.64957 | 11403 ft | 309 kts | 68° |
| 2026-04-28 15:40 | 13.52667 | 77.67123 | 12009 ft | 317 kts | 85° |
| 2026-04-28 15:40 | 13.52816 | 77.69413 | 12624 ft | 326 kts | 86° |
| 2026-04-28 15:41 | 13.52965 | 77.71764 | 13251 ft | 334 kts | 86° |
| 2026-04-28 15:41 | 13.53123 | 77.74171 | 13874 ft | 341 kts | 86° |
| 2026-04-28 15:41 | 13.53288 | 77.76620 | 14437 ft | 347 kts | 86° |
| 2026-04-28 15:41 | 13.53460 | 77.79116 | 15014 ft | 353 kts | 85° |
| 2026-04-28 15:42 | 13.53637 | 77.81658 | 15596 ft | 359 kts | 85° |
| 2026-04-28 15:42 | 13.53816 | 77.84226 | 16189 ft | 363 kts | 85° |
| 2026-04-28 15:42 | 13.53995 | 77.86797 | 16797 ft | 367 kts | 85° |
| 2026-04-28 15:42 | 13.54178 | 77.89421 | 17414 ft | 370 kts | 85° |
| 2026-04-28 15:43 | 13.54361 | 77.92072 | 18045 ft | 373 kts | 85° |
| 2026-04-28 15:43 | 13.54546 | 77.94740 | 18621 ft | 375 kts | 85° |
| 2026-04-28 15:43 | 13.54732 | 77.97419 | 19179 ft | 377 kts | 85° |
| 2026-04-28 15:43 | 13.54918 | 78.00113 | 19740 ft | 378 kts | 85° |
| 2026-04-28 15:44 | 13.55105 | 78.02817 | 20315 ft | 379 kts | 86° |
| 2026-04-28 15:44 | 13.55292 | 78.05520 | 20905 ft | 380 kts | 86° |
| 2026-04-28 15:44 | 13.55684 | 78.08203 | 21498 ft | 380 kts | 74° |
| 2026-04-28 15:44 | 13.56676 | 78.10706 | 22112 ft | 379 kts | 60° |
| 2026-04-28 15:45 | 13.58200 | 78.12868 | 22728 ft | 379 kts | 47° |
| 2026-04-28 15:45 | 13.60058 | 78.14832 | 22971 ft | 390 kts | 46° |
| 2026-04-28 15:45 | 13.61991 | 78.16855 | 23097 ft | 403 kts | 46° |
| 2026-04-28 15:45 | 13.63985 | 78.18945 | 23221 ft | 415 kts | 46° |
| 2026-04-28 15:46 | 13.66032 | 78.21098 | 23371 ft | 426 kts | 46° |
| 2026-04-28 15:46 | 13.68114 | 78.23291 | 23720 ft | 430 kts | 46° |
| 2026-04-28 15:46 | 13.70209 | 78.25501 | 24107 ft | 432 kts | 46° |
| 2026-04-28 15:46 | 13.72315 | 78.27724 | 24476 ft | 435 kts | 45° |
| 2026-04-28 15:47 | 13.74406 | 78.29931 | 24823 ft | 438 kts | 45° |
| 2026-04-28 15:47 | 13.76537 | 78.32183 | 25195 ft | 441 kts | 45° |
| 2026-04-28 15:47 | 13.78683 | 78.34450 | 25552 ft | 444 kts | 45° |
| 2026-04-28 15:47 | 13.80840 | 78.36731 | 25898 ft | 446 kts | 45° |
| 2026-04-28 15:48 | 13.83013 | 78.39030 | 26242 ft | 449 kts | 45° |
| 2026-04-28 15:48 | 13.85195 | 78.41338 | 26581 ft | 452 kts | 45° |
| 2026-04-28 15:48 | 13.87392 | 78.43663 | 26921 ft | 454 kts | 44° |
| 2026-04-28 15:48 | 13.89600 | 78.46000 | 27252 ft | 457 kts | 44° |
| 2026-04-28 15:49 | 13.91822 | 78.48352 | 27575 ft | 459 kts | 44° |
| 2026-04-28 15:49 | 13.94024 | 78.50683 | 27892 ft | 462 kts | 44° |
| 2026-04-28 15:49 | 13.96269 | 78.53061 | 28195 ft | 465 kts | 44° |
| 2026-04-28 15:49 | 13.98530 | 78.55456 | 28505 ft | 467 kts | 44° |
| 2026-04-28 15:50 | 14.00798 | 78.57860 | 28801 ft | 469 kts | 44° |
| 2026-04-28 15:50 | 14.03089 | 78.60268 | 29094 ft | 472 kts | 41° |
| 2026-04-28 15:50 | 14.05574 | 78.62476 | 29393 ft | 472 kts | 36° |
| 2026-04-28 15:50 | 14.08148 | 78.64586 | 29688 ft | 474 kts | 36° |
| 2026-04-28 15:51 | 14.10730 | 78.66713 | 29977 ft | 477 kts | 36° |
| 2026-04-28 15:51 | 14.13321 | 78.68854 | 30228 ft | 478 kts | 36° |
| 2026-04-28 15:51 | 14.15926 | 78.71007 | 30499 ft | 481 kts | 36° |
| 2026-04-28 15:51 | 14.18499 | 78.73135 | 30764 ft | 483 kts | 36° |
| 2026-04-28 15:52 | 14.21124 | 78.75306 | 31062 ft | 484 kts | 36° |
| 2026-04-28 15:52 | 14.23748 | 78.77476 | 31409 ft | 483 kts | 36° |
| 2026-04-28 15:52 | 14.26364 | 78.79641 | 31778 ft | 482 kts | 36° |
| 2026-04-28 15:52 | 14.28981 | 78.81807 | 32119 ft | 482 kts | 36° |
| 2026-04-28 15:53 | 14.31585 | 78.83989 | 32443 ft | 483 kts | 37° |
| 2026-04-28 15:53 | 14.34147 | 78.86227 | 32778 ft | 483 kts | 37° |
| 2026-04-28 15:53 | 14.35834 | 78.87722 | 33018 ft | 482 kts | 37° |